Time;durP1;ratioP1;P1;durP2;ratioP2;P2;SDS_P1;SDS_P2;PMS_P1;PMS_P2;Temp;Humidity;BMP_temperature;BMP_pressure;BME280_temperature;BME280_humidity;BME280_pressure;Samples;Min_cycle;Max_cycle;Signal;HPM_P1;HPM_P2
2022/02/15 00:01:41;;;;;;;30.30;21.40;;;;;;;2.00;100.00;95214.97;5003704;28;20137;-75
2022/02/15 00:04:07;;;;;;;29.17;22.15;;;;;;;1.92;100.00;95216.47;5004184;28;20025;-76
2022/02/15 00:06:32;;;;;;;32.95;22.70;;;;;;;2.00;100.00;95222.66;5003041;28;20081;-76
2022/02/15 00:08:58;;;;;;;30.63;22.10;;;;;;;1.94;100.00;95222.28;4988094;28;20045;-75
2022/02/15 00:11:24;;;;;;;29.27;20.55;;;;;;;1.83;100.00;95229.91;5002264;28;20037;-75
2022/02/15 00:13:49;;;;;;;30.00;22.25;;;;;;;2.00;100.00;95220.09;5004563;28;20034;-74
2022/02/15 00:16:15;;;;;;;28.23;21.15;;;;;;;1.86;100.00;95219.47;5002759;28;20029;-75
2022/02/15 00:18:40;;;;;;;30.92;23.20;;;;;;;1.86;100.00;95219.47;5006016;28;20042;-75
2022/02/15 00:21:06;;;;;;;31.23;22.88;;;;;;;1.69;100.00;95223.25;4986732;28;20030;-75
2022/02/15 00:23:31;;;;;;;30.58;22.30;;;;;;;1.35;100.00;95222.28;5003494;28;20040;-75
2022/02/15 00:25:57;;;;;;;31.75;23.50;;;;;;;1.11;100.00;95229.13;5004093;28;20037;-74
2022/02/15 00:28:22;;;;;;;30.90;23.02;;;;;;;0.79;100.00;95230.53;5002584;28;20053;-74
2022/02/15 00:30:47;;;;;;;30.35;22.85;;;;;;;0.79;100.00;95238.16;5005603;28;20081;-74
2022/02/15 00:33:13;;;;;;;32.03;22.48;;;;;;;0.70;100.00;95238.78;4985343;28;20026;-75
2022/02/15 00:35:38;;;;;;;33.33;23.88;;;;;;;0.52;100.00;95233.19;5004786;28;20018;-75
2022/02/15 00:38:04;;;;;;;32.42;25.60;;;;;;;0.49;100.00;95235.94;5003830;28;20026;-75
2022/02/15 00:40:29;;;;;;;34.00;24.30;;;;;;;0.28;100.00;95235.69;5007155;28;20026;-75
2022/02/15 00:42:55;;;;;;;42.45;27.63;;;;;;;0.22;100.00;95230.16;5004706;28;20416;-74
2022/02/15 00:45:20;;;;;;;36.65;26.73;;;;;;;0.15;100.00;95229.75;5006039;28;20476;-74
2022/02/15 00:47:46;;;;;;;38.90;26.90;;;;;;;0.15;100.00;95223.84;4989294;28;20375;-75
2022/02/15 00:50:11;;;;;;;46.40;31.45;;;;;;;0.76;100.00;95231.56;5003594;28;20037;-75
2022/02/15 00:52:37;;;;;;;43.80;29.55;;;;;;;0.88;100.00;95224.78;5005441;28;20470;-75
2022/02/15 00:55:04;;;;;;;37.50;27.10;;;;;;;0.76;100.00;95220.53;4987314;28;20509;-75
2022/02/15 00:57:30;;;;;;;35.10;25.77;;;;;;;0.60;100.00;95213.13;5005900;28;20036;-75
2022/02/15 00:59:56;;;;;;;39.53;29.60;;;;;;;0.80;100.00;95197.31;4988056;28;20026;-75
2022/02/15 01:02:21;;;;;;;39.15;28.15;;;;;;;0.87;100.00;95207.84;5004644;28;20510;-75
2022/02/15 01:04:47;;;;;;;40.85;29.23;;;;;;;0.85;100.00;95204.59;4989219;28;20109;-75
2022/02/15 01:07:12;;;;;;;40.03;27.00;;;;;;;0.84;100.00;95195.31;5003480;28;20104;-75
2022/02/15 01:09:39;;;;;;;40.15;28.17;;;;;;;1.17;100.00;95190.44;5005547;28;20018;-75
2022/02/15 01:12:05;;;;;;;39.08;26.98;;;;;;;1.04;100.00;95189.66;4987112;28;20031;-75
2022/02/15 01:14:30;;;;;;;41.55;28.67;;;;;;;0.97;100.00;95175.72;5006797;28;20034;-74
2022/02/15 01:16:56;;;;;;;37.63;24.95;;;;;;;1.02;100.00;95181.31;5008160;28;20118;-75
2022/02/15 01:19:21;;;;;;;36.65;25.40;;;;;;;1.02;100.00;95177.03;5008873;28;20037;-74
2022/02/15 01:21:46;;;;;;;34.47;24.50;;;;;;;1.01;100.00;95189.88;5008103;28;20030;-74
2022/02/15 01:24:12;;;;;;;36.30;25.88;;;;;;;0.32;100.00;95187.91;5009022;28;20029;-75
2022/02/15 01:26:37;;;;;;;42.60;29.33;;;;;;;0.15;100.00;95183.94;5008771;28;20474;-74
2022/02/15 01:29:03;;;;;;;38.35;26.65;;;;;;;0.02;100.00;95184.84;5007839;28;20029;-75
2022/02/15 01:31:29;;;;;;;36.40;25.80;;;;;;;0.14;100.00;95184.03;5009847;28;20067;-75
2022/02/15 01:33:54;;;;;;;36.05;26.80;;;;;;;0.49;100.00;95178.19;5006791;28;20062;-75
2022/02/15 01:36:20;;;;;;;36.50;25.08;;;;;;;0.42;100.00;95182.06;4991731;28;20487;-75
2022/02/15 01:38:45;;;;;;;35.03;24.17;;;;;;;0.83;100.00;95179.25;5007256;28;20592;-75
2022/02/15 01:41:11;;;;;;;40.20;26.20;;;;;;;0.13;100.00;95170.47;5007737;28;20030;-75
2022/02/15 01:43:40;;;;;;;40.55;26.58;;;;;;;0.32;100.00;95165.78;4991765;28;20045;-75
2022/02/15 01:46:07;;;;;;;33.88;24.63;;;;;;;0.71;100.00;95194.53;5006785;28;20033;-74
2022/02/15 01:48:36;;;;;;;35.50;25.65;;;;;;;0.68;100.00;95203.22;5007990;28;20042;-74
2022/02/15 01:51:03;;;;;;;37.50;27.15;;;;;;;0.82;100.00;95189.53;5006187;28;20405;-75
2022/02/15 01:53:28;;;;;;;36.22;25.27;;;;;;;0.85;100.00;95184.22;5009443;28;20026;-75
2022/02/15 01:55:54;;;;;;;35.90;23.88;;;;;;;0.70;100.00;95188.66;5007787;28;20100;-74
2022/02/15 01:58:19;;;;;;;34.47;24.85;;;;;;;0.25;100.00;95174.78;4991310;28;20192;-74
2022/02/15 02:00:45;;;;;;;36.42;26.15;;;;;;;0.40;100.00;95181.38;5008749;28;20115;-75
2022/02/15 02:03:10;;;;;;;40.55;26.05;;;;;;;0.68;100.00;95187.09;5006691;28;20026;-75
2022/02/15 02:05:47;;;;;;;39.25;26.25;;;;;;;0.88;100.00;95187.38;5007903;28;20088;-75
2022/02/15 02:08:15;;;;;;;39.45;28.98;;;;;;;0.26;100.00;95191.66;5007341;28;20037;-75
2022/02/15 02:10:40;;;;;;;45.20;30.20;;;;;;;-0.33;100.00;95189.72;5007959;28;20109;-74
2022/02/15 02:13:05;;;;;;;41.95;28.58;;;;;;;-0.19;100.00;95194.69;5007421;28;20100;-75
2022/02/15 02:15:31;;;;;;;47.28;31.15;;;;;;;0.49;100.00;95208.75;5008994;28;20040;-75
2022/02/15 02:17:58;;;;;;;40.17;29.25;;;;;;;0.84;100.00;95218.25;5007335;28;20033;-75
2022/02/15 02:20:23;;;;;;;41.13;28.80;;;;;;;0.80;100.00;95216.88;5006529;28;20030;-74
2022/02/15 02:22:49;;;;;;;39.78;28.67;;;;;;;0.68;100.00;95202.41;5007566;28;20033;-74
2022/02/15 02:25:15;;;;;;;40.15;28.30;;;;;;;0.56;100.00;95211.69;5005446;28;20041;-74
2022/02/15 02:27:41;;;;;;;43.95;32.33;;;;;;;0.55;100.00;95216.91;5007491;28;20101;-74
2022/02/15 02:30:08;;;;;;;42.42;30.20;;;;;;;0.56;100.00;95218.53;5005787;28;20172;-75
2022/02/15 02:32:34;;;;;;;40.08;28.38;;;;;;;0.54;100.00;95216.09;4990695;28;20037;-74
2022/02/15 02:35:05;;;;;;;42.53;30.58;;;;;;;0.58;100.00;95230.22;4990210;28;20030;-75
2022/02/15 02:37:31;;;;;;;38.78;29.10;;;;;;;0.42;100.00;95232.19;5007721;28;20032;-74
2022/02/15 02:39:56;;;;;;;37.53;28.25;;;;;;;0.59;100.00;95238.69;5007476;28;20109;-75
2022/02/15 02:42:26;;;;;;;37.25;28.23;;;;;;;0.68;100.00;95243.16;5014320;28;20128;-75
2022/02/15 02:44:56;;;;;;;36.13;24.98;;;;;;;0.74;100.00;95250.41;4994639;28;20032;-74
2022/02/15 02:47:22;;;;;;;42.42;25.70;;;;;;;0.53;100.00;95237.38;5008535;28;20057;-75
2022/02/15 02:49:47;;;;;;;37.47;27.42;;;;;;;0.28;100.00;95239.94;5010302;28;20025;-74
2022/02/15 02:52:14;;;;;;;38.72;25.13;;;;;;;-0.15;100.00;95231.75;5008937;28;20021;-75
2022/02/15 02:54:41;;;;;;;37.47;27.10;;;;;;;-0.32;100.00;95232.03;4993144;28;20364;-75
2022/02/15 02:57:06;;;;;;;39.50;27.80;;;;;;;-0.48;100.00;95228.84;5028169;28;20135;-75
2022/02/15 02:59:32;;;;;;;40.30;28.98;;;;;;;-0.56;100.00;95247.94;5008541;28;20519;-75
2022/02/15 03:01:58;;;;;;;41.15;28.98;;;;;;;-0.55;100.00;95248.75;5028019;28;20038;-75
2022/02/15 03:04:23;;;;;;;40.17;27.63;;;;;;;-0.34;100.00;95255.03;5026104;28;20017;-75
2022/02/15 03:06:49;;;;;;;44.45;28.55;;;;;;;-0.35;100.00;95252.59;5027515;28;20021;-75
2022/02/15 03:09:14;;;;;;;47.40;30.38;;;;;;;-0.42;100.00;95257.25;5026094;28;20030;-75
2022/02/15 03:11:40;;;;;;;60.83;39.35;;;;;;;-0.74;100.00;95254.16;5009852;28;20373;-74
2022/02/15 03:14:06;;;;;;;52.90;34.15;;;;;;;-0.68;100.00;95265.69;5009344;28;20101;-75
2022/02/15 03:16:32;;;;;;;48.40;31.60;;;;;;;-0.85;100.00;95268.47;5026319;28;20643;-75
2022/02/15 03:18:58;;;;;;;48.35;33.70;;;;;;;-0.76;100.00;95267.88;5010176;28;20100;-75
2022/02/15 03:21:24;;;;;;;45.08;29.88;;;;;;;-0.68;100.00;95278.41;5008048;28;20474;-75
2022/02/15 03:23:51;;;;;;;43.03;29.30;;;;;;;-0.83;100.00;95279.31;5027862;28;20041;-75
2022/02/15 03:26:16;;;;;;;40.08;26.95;;;;;;;-0.92;100.00;95285.81;5007652;28;20053;-75
2022/02/15 03:28:42;;;;;;;42.55;28.02;;;;;;;-1.02;100.00;95279.66;5027491;28;20071;-75
2022/02/15 03:31:07;;;;;;;45.17;28.85;;;;;;;-0.97;100.00;95287.00;5008104;28;20051;-75
2022/02/15 03:33:33;;;;;;;41.40;28.05;;;;;;;-0.97;100.00;95287.81;5009527;28;20025;-76
2022/02/15 03:35:59;;;;;;;41.70;27.48;;;;;;;-0.88;100.00;95287.25;5009281;28;20059;-75
2022/02/15 03:38:25;;;;;;;43.53;28.17;;;;;;;-0.88;100.00;95297.41;5007665;28;20022;-75
2022/02/15 03:43:34;;;;;;;40.83;27.48;;;;;;;-0.84;100.00;95311.59;5010326;28;20517;-75
2022/02/15 03:45:59;;;;;;;50.38;32.97;;;;;;;-0.92;100.00;95300.22;5008984;28;20029;-75
2022/02/15 03:48:25;;;;;;;46.30;29.58;;;;;;;-1.01;100.00;95306.69;5007968;28;20064;-75
2022/02/15 03:50:50;;;;;;;51.55;32.53;;;;;;;-1.26;100.00;95297.19;5026699;28;20021;-75
2022/02/15 03:53:17;;;;;;;43.58;28.38;;;;;;;-1.02;100.00;95320.28;5009251;28;20033;-75
2022/02/15 03:55:44;;;;;;;38.83;26.25;;;;;;;-1.06;100.00;95316.34;5025298;28;20403;-75
2022/02/15 03:58:09;;;;;;;40.03;25.88;;;;;;;-1.30;100.00;95325.38;5009531;28;20438;-75
2022/02/15 04:00:35;;;;;;;41.15;27.33;;;;;;;-1.19;100.00;95325.59;5007386;28;20032;-75
2022/02/15 04:03:01;;;;;;;42.88;29.48;;;;;;;-1.04;100.00;95329.75;5009254;28;20029;-75
2022/02/15 04:05:26;;;;;;;50.28;31.52;;;;;;;-0.60;100.00;95322.78;5007370;28;20551;-75
2022/02/15 04:07:52;;;;;;;51.00;30.38;;;;;;;-0.96;100.00;95326.75;5008983;28;20134;-75
2022/02/15 04:10:17;;;;;;;42.67;28.95;;;;;;;-0.95;100.00;95336.81;5008558;28;20029;-75
2022/02/15 04:12:43;;;;;;;42.58;29.23;;;;;;;-0.94;100.00;95338.44;5007912;28;20049;-75
2022/02/15 04:15:10;;;;;;;48.20;32.13;;;;;;;-1.16;100.00;95338.09;5009269;28;20110;-75
2022/02/15 04:17:35;;;;;;;47.92;31.45;;;;;;;-1.22;100.00;95334.19;5007286;28;20041;-75
2022/02/15 04:20:02;;;;;;;44.03;28.10;;;;;;;-1.40;100.00;95337.00;5027059;28;20197;-75
2022/02/15 04:22:28;;;;;;;47.25;32.30;;;;;;;-1.45;100.00;95333.91;5007289;28;20406;-75
2022/02/15 04:24:53;;;;;;;46.75;30.80;;;;;;;-1.46;100.00;95334.81;5026931;28;20026;-75
2022/02/15 04:27:19;;;;;;;38.28;27.30;;;;;;;-1.43;100.00;95340.53;5025334;28;20105;-75
2022/02/15 04:29:44;;;;;;;37.92;26.20;;;;;;;-1.31;100.00;95349.13;5026238;28;20453;-75
2022/02/15 04:32:10;;;;;;;44.97;29.25;;;;;;;-1.38;100.00;95337.75;5008547;28;20056;-75
2022/02/15 04:34:36;;;;;;;39.58;26.88;;;;;;;-1.38;100.00;95336.00;5008067;28;20014;-75
2022/02/15 04:37:02;;;;;;;39.50;26.77;;;;;;;-1.02;100.00;95337.25;5008861;28;20040;-75
2022/02/15 04:39:28;;;;;;;38.92;27.52;;;;;;;-1.11;100.00;95336.91;5025559;28;20114;-75
2022/02/15 04:41:53;;;;;;;39.20;25.67;;;;;;;-0.99;100.00;95348.06;5026435;28;20053;-75
2022/02/15 04:44:18;;;;;;;38.60;27.38;;;;;;;-1.11;100.00;95351.34;5024975;28;20495;-75
2022/02/15 04:46:45;;;;;;;38.83;25.67;;;;;;;-1.03;100.00;95350.88;5026569;28;20045;-75
2022/02/15 04:49:10;;;;;;;36.38;24.02;;;;;;;-0.74;100.00;95345.66;5027850;28;20419;-75
2022/02/15 04:51:36;;;;;;;38.45;24.38;;;;;;;-0.71;100.00;95339.59;5029628;28;20430;-76
2022/02/15 04:54:01;;;;;;;33.83;25.15;;;;;;;-0.89;100.00;95345.78;5030523;28;20478;-75
2022/02/15 04:56:26;;;;;;;37.50;26.02;;;;;;;-1.07;100.00;95343.47;5028324;28;20109;-75
2022/02/15 04:58:52;;;;;;;39.10;26.85;;;;;;;-1.09;100.00;95329.19;5030678;28;20060;-75
2022/02/15 05:01:18;;;;;;;37.50;25.60;;;;;;;-0.95;100.00;95341.91;5010274;28;20022;-75
2022/02/15 05:03:44;;;;;;;38.28;27.40;;;;;;;-1.05;100.00;95333.19;4996403;28;20029;-75
2022/02/15 05:06:09;;;;;;;37.33;26.48;;;;;;;-1.06;100.00;95329.03;5028112;28;20056;-76
2022/02/15 05:08:34;;;;;;;42.00;26.58;;;;;;;-1.04;100.00;95326.38;5030370;28;20021;-75
2022/02/15 05:11:00;;;;;;;44.22;29.75;;;;;;;-1.03;100.00;95325.47;5029452;28;20036;-75
2022/02/15 05:13:25;;;;;;;39.80;27.75;;;;;;;-1.11;100.00;95334.38;5028727;28;20029;-75
2022/02/15 05:15:51;;;;;;;39.13;26.40;;;;;;;-1.04;100.00;95322.13;5029847;28;20029;-75
2022/02/15 05:18:16;;;;;;;41.42;26.77;;;;;;;-1.08;100.00;95320.66;5010138;28;20458;-75
2022/02/15 05:20:42;;;;;;;46.03;29.73;;;;;;;-1.16;100.00;95320.31;5012393;28;20036;-75
2022/02/15 05:23:07;;;;;;;52.30;34.22;;;;;;;-1.13;100.00;95320.97;5009957;28;20045;-75
2022/02/15 05:25:33;;;;;;;48.05;29.80;;;;;;;-1.11;100.00;95324.22;5029787;28;20434;-75
2022/02/15 05:27:59;;;;;;;46.50;31.92;;;;;;;-0.99;100.00;95327.72;5028452;28;20021;-75
2022/02/15 05:30:26;;;;;;;43.50;29.17;;;;;;;-1.08;100.00;95328.28;5029199;28;20392;-74
2022/02/15 05:32:52;;;;;;;40.65;29.20;;;;;;;-1.02;100.00;95330.47;5011629;28;20170;-75
2022/02/15 05:35:17;;;;;;;46.85;31.17;;;;;;;-1.02;100.00;95320.28;5027870;28;20100;-75
2022/02/15 05:37:43;;;;;;;39.67;28.35;;;;;;;-0.90;100.00;95324.63;5029625;28;20704;-75
2022/02/15 05:40:10;;;;;;;40.03;28.02;;;;;;;-0.87;100.00;95323.66;4993289;28;20026;-74
2022/02/15 05:42:35;;;;;;;46.83;30.35;;;;;;;-0.91;100.00;95317.13;4994884;28;20404;-75
2022/02/15 05:45:01;;;;;;;39.03;28.25;;;;;;;-0.76;100.00;95324.63;5010103;28;20028;-75
2022/02/15 05:47:26;;;;;;;40.28;27.33;;;;;;;-0.62;100.00;95329.69;5011126;28;20032;-75
2022/02/15 05:52:36;;;;;;;40.08;27.95;;;;;;;0.22;100.00;95329.47;5012405;28;20407;-76
2022/02/15 05:55:01;;;;;;;36.17;24.73;;;;;;;1.50;100.00;95300.31;5011836;28;20026;-75
2022/02/15 05:57:28;;;;;;;32.72;24.15;;;;;;;1.80;100.00;95281.97;5009229;28;20052;-76
2022/02/15 05:59:55;;;;;;;33.65;25.08;;;;;;;1.09;100.00;95287.06;5011449;28;20049;-75
2022/02/15 06:02:21;;;;;;;37.08;26.30;;;;;;;0.60;100.00;95276.00;5009536;28;20022;-75
2022/02/15 06:04:46;;;;;;;33.65;23.88;;;;;;;0.78;100.00;95293.41;5011180;28;20486;-75
2022/02/15 06:07:12;;;;;;;31.67;24.77;;;;;;;1.22;100.00;95280.16;5028398;28;20091;-76
2022/02/15 06:09:37;;;;;;;38.88;28.77;;;;;;;1.55;100.00;95287.19;5010160;28;20029;-75
2022/02/15 06:12:04;;;;;;;52.30;36.75;;;;;;;1.83;100.00;95280.97;4994870;28;20035;-76
2022/02/15 06:14:29;;;;;;;43.05;31.25;;;;;;;1.87;100.00;95284.91;5009029;28;20026;-76
2022/02/15 06:16:54;;;;;;;35.67;27.15;;;;;;;0.92;100.00;95292.47;5011445;28;20415;-75
2022/02/15 06:19:20;;;;;;;31.45;24.55;;;;;;;1.71;100.00;95289.47;5009186;28;20061;-76
2022/02/15 06:21:47;;;;;;;35.67;26.48;;;;;;;2.29;100.00;95284.34;5011086;28;20091;-76
2022/02/15 06:24:13;;;;;;;37.33;26.52;;;;;;;2.74;100.00;95277.56;5010384;28;20029;-76
2022/02/15 06:26:38;;;;;;;27.25;20.38;;;;;;;3.97;100.00;95267.94;5010046;28;20032;-75
2022/02/15 06:29:04;;;;;;;44.72;31.27;;;;;;;5.38;98.89;95263.81;4994463;28;20076;-76
2022/02/15 06:31:29;;;;;;;18.02;16.17;;;;;;;4.86;97.11;95265.66;4992425;28;20017;-75
2022/02/15 06:33:55;;;;;;;27.85;22.48;;;;;;;4.12;100.00;95277.75;5028641;28;20033;-75
2022/02/15 06:36:20;;;;;;;25.30;22.27;;;;;;;5.83;97.67;95270.91;5008606;28;20037;-76
2022/02/15 06:38:45;;;;;;;20.75;18.52;;;;;;;5.87;95.02;95271.50;5010875;28;20060;-75
2022/02/15 06:41:11;;;;;;;18.33;16.27;;;;;;;5.07;96.91;95263.06;5026330;28;20029;-76
2022/02/15 06:43:37;;;;;;;17.63;14.55;;;;;;;5.72;92.92;95267.66;5028214;28;20445;-76
2022/02/15 06:46:02;;;;;;;18.90;17.08;;;;;;;4.33;100.00;95267.53;5009779;28;20487;-75
2022/02/15 06:48:27;;;;;;;18.75;16.75;;;;;;;5.80;95.45;95267.81;5026463;28;20022;-75
2022/02/15 06:50:53;;;;;;;16.23;14.60;;;;;;;6.43;89.47;95260.50;5009878;28;20052;-75
2022/02/15 06:53:19;;;;;;;17.60;15.88;;;;;;;5.25;94.50;95259.72;5026021;28;20022;-75
2022/02/15 06:55:44;;;;;;;20.88;18.73;;;;;;;3.93;100.00;95266.53;5010110;28;20144;-75
2022/02/15 06:58:10;;;;;;;17.65;15.85;;;;;;;4.38;100.00;95274.84;4991761;28;20120;-75
2022/02/15 07:00:35;;;;;;;20.17;17.13;;;;;;;4.73;100.00;95268.44;5010113;28;20037;-75
2022/02/15 07:03:01;;;;;;;21.27;18.92;;;;;;;4.39;100.00;95274.72;5008672;28;20479;-75
2022/02/15 07:05:27;;;;;;;20.40;18.20;;;;;;;4.55;100.00;95280.22;5009861;28;20033;-74
2022/02/15 07:07:53;;;;;;;20.80;17.45;;;;;;;4.72;100.00;95277.06;5000765;28;20486;-74
2022/02/15 07:10:18;;;;;;;19.88;17.77;;;;;;;7.62;92.51;95274.28;5012378;28;20029;-75
2022/02/15 07:12:44;;;;;;;18.02;16.23;;;;;;;11.80;58.93;95257.63;5005313;28;20029;-76
2022/02/15 07:15:09;;;;;;;18.38;16.52;;;;;;;8.01;67.84;95259.38;4987941;28;20459;-75
2022/02/15 07:17:38;;;;;;;18.67;16.77;;;;;;;6.22;84.55;95274.34;4990055;28;20040;-75
2022/02/15 07:20:06;;;;;;;18.23;16.38;;;;;;;8.15;79.12;95270.00;5004162;28;20021;-75
2022/02/15 07:22:32;;;;;;;18.63;16.63;;;;;;;10.42;62.99;95258.94;5023217;28;20033;-76
2022/02/15 07:24:57;;;;;;;18.15;16.45;;;;;;;12.32;55.67;95267.38;5001348;28;20056;-75
2022/02/15 07:27:23;;;;;;;19.95;17.98;;;;;;;11.42;57.40;95258.41;4992771;28;20101;-76
2022/02/15 07:29:48;;;;;;;18.38;16.55;;;;;;;12.81;54.43;95252.19;4992693;28;20037;-75
2022/02/15 07:32:13;;;;;;;18.63;16.88;;;;;;;11.00;59.47;95254.34;4991033;28;20033;-76
2022/02/15 07:34:39;;;;;;;17.00;15.40;;;;;;;10.06;61.13;95253.22;5010834;28;20029;-76
2022/02/15 07:37:04;;;;;;;25.05;17.95;;;;;;;6.66;78.51;95265.19;5010778;28;20025;-75
2022/02/15 07:39:30;;;;;;;19.67;17.67;;;;;;;5.76;89.35;95274.16;4996265;28;20519;-75
2022/02/15 07:41:55;;;;;;;26.17;21.20;;;;;;;5.05;97.37;95282.88;4995770;28;20875;-75
2022/02/15 07:44:21;;;;;;;42.25;34.70;;;;;;;4.30;100.00;95290.84;5009858;28;20920;-75
2022/02/15 07:46:47;;;;;;;40.15;32.15;;;;;;;5.16;100.00;95288.75;5005085;28;20033;-75
2022/02/15 07:49:16;;;;;;;53.70;38.22;;;;;;;7.66;92.54;95278.22;5004070;28;20062;-75
2022/02/15 07:51:41;;;;;;;42.58;32.78;;;;;;;11.01;63.12;95266.31;5004667;28;20958;-75
2022/02/15 07:54:07;;;;;;;49.25;37.47;;;;;;;10.65;59.72;95261.69;5004214;28;20055;-75
2022/02/15 07:56:33;;;;;;;48.33;37.63;;;;;;;9.85;63.20;95270.97;5005617;28;20132;-75
2022/02/15 07:58:58;;;;;;;49.03;36.15;;;;;;;9.75;64.20;95258.19;5003984;28;20048;-75
2022/02/15 08:01:24;;;;;;;45.28;34.72;;;;;;;11.67;56.32;95262.53;4994972;28;20041;-75
2022/02/15 08:03:50;;;;;;;45.47;35.63;;;;;;;11.52;56.85;95265.03;5003063;28;20080;-75
2022/02/15 08:06:16;;;;;;;49.20;35.88;;;;;;;11.91;57.38;95270.19;5003596;28;20503;-75
2022/02/15 08:08:41;;;;;;;45.53;34.13;;;;;;;6.64;76.56;95279.16;5022308;28;20036;-75
2022/02/15 08:11:07;;;;;;;50.83;37.13;;;;;;;7.50;76.01;95283.19;5003503;28;20648;-76
2022/02/15 08:13:37;;;;;;;49.22;37.10;;;;;;;6.86;82.43;95274.50;5023526;28;20064;-75
2022/02/15 08:16:03;;;;;;;47.20;36.53;;;;;;;6.72;83.11;95276.69;5004205;28;20103;-76
2022/02/15 08:18:29;;;;;;;48.70;36.50;;;;;;;7.50;81.29;95284.00;5005766;28;20525;-76
2022/02/15 08:20:54;;;;;;;54.63;38.40;;;;;;;7.22;81.46;95277.22;5003910;28;20044;-75
2022/02/15 08:23:20;;;;;;;52.05;37.42;;;;;;;7.05;81.04;95281.34;5005705;28;20403;-75
2022/02/15 08:25:46;;;;;;;46.13;35.83;;;;;;;9.09;73.39;95283.09;5027148;28;20029;-75
2022/02/15 08:28:13;;;;;;;48.20;36.88;;;;;;;6.81;77.82;95289.53;5007714;28;20613;-75
2022/02/15 08:30:40;;;;;;;53.90;38.45;;;;;;;5.75;87.90;95287.94;5009230;28;20034;-76
2022/02/15 08:33:05;;;;;;;45.22;32.78;;;;;;;6.11;89.25;95279.63;5000193;28;20033;-76
2022/02/15 08:35:31;;;;;;;44.67;32.67;;;;;;;7.00;87.47;95288.66;5020874;28;20493;-75
2022/02/15 08:37:56;;;;;;;39.60;31.10;;;;;;;9.92;70.59;95277.94;5006959;28;20060;-75
2022/02/15 08:40:22;;;;;;;38.83;30.45;;;;;;;9.81;66.80;95265.31;5009390;28;20474;-76
2022/02/15 08:42:47;;;;;;;40.80;32.63;;;;;;;7.24;80.05;95278.69;5004653;28;20426;-75
2022/02/15 08:45:13;;;;;;;44.45;33.45;;;;;;;10.52;65.73;95259.59;5004199;28;20490;-75
2022/02/15 08:47:39;;;;;;;40.05;32.35;;;;;;;10.30;66.59;95268.81;5003143;28;20509;-75
2022/02/15 08:50:07;;;;;;;36.13;31.75;;;;;;;7.85;78.39;95276.31;5003880;28;20542;-75
2022/02/15 08:52:32;;;;;;;39.35;31.50;;;;;;;6.44;84.97;95255.22;4989853;28;20034;-75
2022/02/15 08:54:58;;;;;;;42.38;33.30;;;;;;;6.16;91.28;95271.50;5003475;28;20037;-75
2022/02/15 08:57:24;;;;;;;47.35;34.53;;;;;;;6.32;93.84;95275.13;5004804;28;20053;-75
2022/02/15 08:59:53;;;;;;;43.53;32.83;;;;;;;6.31;93.88;95275.28;5003694;28;20033;-75
2022/02/15 09:02:22;;;;;;;40.40;31.98;;;;;;;10.21;72.39;95264.56;5004995;28;20026;-75
2022/02/15 09:04:47;;;;;;;43.40;32.42;;;;;;;13.09;54.95;95253.22;5006466;28;20531;-75
2022/02/15 09:07:13;;;;;;;40.83;33.10;;;;;;;13.46;52.70;95260.13;5003580;28;20037;-75
2022/02/15 09:09:39;;;;;;;41.30;32.90;;;;;;;11.86;56.57;95261.31;4989005;28;20057;-75
2022/02/15 09:12:05;;;;;;;35.70;30.30;;;;;;;12.13;56.86;95259.06;4986959;28;20054;-75
2022/02/15 09:14:31;;;;;;;37.70;33.30;;;;;;;10.82;60.27;95261.47;5005611;28;20029;-75
2022/02/15 09:16:59;;;;;;;31.05;27.65;;;;;;;13.13;54.04;95252.69;5003342;28;20132;-76
2022/02/15 09:19:25;;;;;;;28.55;25.55;;;;;;;12.67;52.35;95245.97;4985625;28;20068;-76
2022/02/15 09:21:50;;;;;;;31.10;27.50;;;;;;;14.86;47.74;95251.78;5001700;28;20069;-75
2022/02/15 09:24:17;;;;;;;31.63;27.80;;;;;;;15.95;46.60;95243.97;5005533;28;20021;-75
2022/02/15 09:26:42;;;;;;;30.30;26.27;;;;;;;14.86;47.76;95242.16;4989106;28;20088;-76
2022/02/15 10:35:09;;;;;;;24.98;22.35;;;;;;;13.11;52.85;95152.44;5104443;27;20616;-75
2022/02/15 10:37:35;;;;;;;27.55;23.52;;;;;;;11.59;61.23;95153.63;5104685;28;20036;-75
2022/02/15 10:40:06;;;;;;;27.52;22.98;;;;;;;10.86;65.01;95159.13;5103406;28;20024;-75
2022/02/15 10:42:32;;;;;;;28.25;23.52;;;;;;;10.18;69.19;95147.66;5103531;28;20416;-75
2022/02/15 10:45:06;;;;;;;23.27;20.63;;;;;;;11.33;62.31;95147.94;5084839;28;20028;-74
2022/02/15 10:47:35;;;;;;;23.85;21.25;;;;;;;11.43;61.40;95141.53;5103428;28;20020;-75
2022/02/15 10:50:03;;;;;;;29.77;23.98;;;;;;;10.18;69.92;95148.44;5101916;28;20384;-75
2022/02/15 10:52:29;;;;;;;24.15;20.48;;;;;;;11.18;66.45;95134.06;5103078;28;20023;-75
2022/02/15 10:54:55;;;;;;;25.80;20.90;;;;;;;10.83;69.08;95133.56;5102855;28;20024;-75
2022/02/15 10:57:24;;;;;;;23.73;21.15;;;;;;;10.11;72.01;95131.13;5102375;28;20027;-75
2022/02/15 10:59:52;;;;;;;22.02;19.48;;;;;;;10.34;71.21;95126.94;5086189;28;20036;-75
2022/02/15 11:14:29;;;;;;;20.73;16.92;;;;;;;10.09;71.92;95100.22;5103658;27;20388;-75
2022/02/15 11:16:54;;;;;;;17.30;15.45;;;;;;;10.50;69.97;95096.59;5085264;28;20580;-75
2022/02/15 11:19:20;;;;;;;18.10;16.27;;;;;;;10.31;68.67;95098.75;5101335;28;20408;-75
2022/02/15 11:21:55;;;;;;;18.45;15.45;;;;;;;10.59;69.38;95094.81;5103679;28;20099;-75
2022/02/15 11:24:20;;;;;;;16.70;15.00;;;;;;;10.72;66.17;95095.09;5073870;28;20033;-75
2022/02/15 11:26:46;;;;;;;18.77;16.77;;;;;;;10.95;69.00;95090.75;5093198;28;20033;-77
2022/02/15 11:29:19;;;;;;;17.08;15.05;;;;;;;11.26;64.85;95092.56;5098628;28;20035;-77
2022/02/15 11:31:44;;;;;;;17.60;16.00;;;;;;;10.77;68.71;95089.38;5083895;28;20012;-78
2022/02/15 11:34:11;;;;;;;17.15;15.38;;;;;;;10.85;67.29;95084.97;5071494;28;20039;-78
2022/02/15 11:36:51;;;;;;;16.80;15.15;;;;;;;10.85;68.11;95082.38;5076947;28;20038;-77
2022/02/15 11:39:21;;;;;;;17.85;16.20;;;;;;;11.02;68.18;95076.16;5082983;28;20039;-77
2022/02/15 11:41:48;;;;;;;17.30;15.57;;;;;;;10.68;67.61;95072.28;5071711;28;20107;-77
2022/02/15 11:44:14;;;;;;;16.15;14.50;;;;;;;11.08;65.84;95065.09;5086879;28;20165;-77
2022/02/15 11:46:43;;;;;;;18.60;15.93;;;;;;;10.66;66.46;95062.06;5067072;28;20040;-78
2022/02/15 11:49:17;;;;;;;19.50;15.10;;;;;;;11.31;62.16;95059.13;5082655;28;20105;-78
2022/02/15 11:51:45;;;;;;;17.50;15.57;;;;;;;11.04;64.93;95063.81;5091932;28;20047;-77
2022/02/15 11:54:12;;;;;;;17.70;15.80;;;;;;;11.14;66.16;95058.44;5080002;28;20409;-77
2022/02/15 11:56:38;;;;;;;19.45;16.85;;;;;;;11.16;66.27;95059.06;5081402;28;20470;-78
2022/02/15 11:59:13;;;;;;;19.67;15.30;;;;;;;11.48;64.58;95047.66;5108319;28;20081;-78
2022/02/15 12:01:41;;;;;;;18.58;16.65;;;;;;;11.34;66.24;95048.41;5087313;28;20058;-78
2022/02/15 12:04:10;;;;;;;18.52;16.42;;;;;;;11.06;65.25;95055.88;5070915;28;20036;-78
2022/02/15 12:06:37;;;;;;;18.85;16.58;;;;;;;11.08;63.64;95049.56;5083005;28;20036;-78
2022/02/15 12:09:03;;;;;;;19.55;17.55;;;;;;;11.23;65.31;95046.22;5083706;28;20497;-78
2022/02/15 12:11:30;;;;;;;19.08;17.08;;;;;;;11.20;64.66;95047.38;5083386;28;20028;-77
2022/02/15 12:13:56;;;;;;;21.55;19.17;;;;;;;11.31;64.66;95043.56;5078476;28;20052;-78
2022/02/15 12:16:23;;;;;;;21.23;18.20;;;;;;;11.24;64.26;95040.84;5067304;28;20392;-78
2022/02/15 12:18:49;;;;;;;21.10;18.20;;;;;;;11.40;63.77;95040.75;5069531;28;20035;-78
2022/02/15 12:21:14;;;;;;;20.52;18.25;;;;;;;11.24;63.41;95022.72;5068585;28;20024;-80
2022/02/15 12:23:40;;;;;;;27.00;18.25;;;;;;;11.59;63.86;95031.72;5067199;28;20068;-75
2022/02/15 12:26:06;;;;;;;20.33;17.90;;;;;;;10.94;64.12;95024.38;5066048;28;20035;-75
2022/02/15 12:28:32;;;;;;;22.58;18.23;;;;;;;11.52;63.44;95010.03;5067106;28;20032;-75
2022/02/15 12:30:57;;;;;;;20.27;17.20;;;;;;;11.39;62.25;95013.22;5066824;28;20033;-75
2022/02/15 12:33:33;;;;;;;20.88;18.73;;;;;;;11.25;62.64;95011.38;5067308;28;20762;-75
2022/02/15 12:35:58;;;;;;;19.90;17.80;;;;;;;11.17;64.97;95010.63;5061096;28;20607;-75